Weather in selectable METAR weather stations

1) Select the Continent / Group:

[Europe]  [Asia]  [Africa]  [North America]  [South America]  
[Central America and Caribbean]  [Oceania]  [Antarctica]  
2) Select the Weather station (City):


METAR = EFHK 212250Z 05004KT CAVOK 01/00 Q1001 NOSIG

STATIONEFHK
NAMEHelsinki/Vantaa Arpt, UU, FI
OBSERVED22.04.2021 01:50 (21.04.2021 22:50 UTC), 28 min ago
TEMPERATURE1.0°C ( 34°F)
WINDCHILL-1.4 °C (29 °F)
WINDNE (50 degrees) at 5 MPH (4 knots; 2.1 m/s)
HUMIDITY93%
PRESSURE1001 hPa
Click here to search the weather station or to give the station identifier
(four-character ICAO Location Indicator) for weather data.